Terminal Aerodrome Forecast
Issued by NWS

Home | Current Version | Previous Version | Text Only | Print | Product List | Glossary Off
Versions: 1 2 3 4 5 6 7 8 9 10 11 12 13 14 15 16

000
FTUS42 KMHX 161741
TAFOAJ
TAF
KOAJ 161741Z 1618/1718 05006KT P6SM SCT035
     FM162300 05003KT P6SM SCT250
     FM170600 05003KT 5SM BR SCT005
     FM170900 04003KT 1SM BR BKN004
     FM171200 02005KT 2SM BR BKN008
     FM171300 02006KT P6SM BKN008
     FM171600 02008KT P6SM BKN050
      AMD LTD TO CLD VIS AND WIND=

USA.gov is the U.S. government's official web portal to all federal, state and local government web resources and services.